Terminal Aerodrome Forecast
Issued by NWS

Home | Current Version | Previous Version | Text Only | Print | Product List | Glossary On
Versions: 1 2 3 4 5 6 7 8 9 10 11 12 13
888
FTUS42 KMLB 201741
TAFSFB
TAF
KSFB 201741Z 2018/2118 05008KT P6SM SCT040 SCT100
     FM210200 06004KT P6SM FEW040 SCT100
     FM211500 05007KT P6SM SCT030 SCT250=

USA.gov is the U.S. government's official web portal to all federal, state and local government web resources and services.